EVA801 RCTP-VMMC
Flight info
| Callsign | EVA801 |
|---|---|
| Flight time | N/A |
| Altitude | 36000 |
| Route | CHALI1C CHALI T3 MKG A1 ELATO J101 NEDLE/N0398F220 J101 SMT |
| Aircraft | A321/M-SDE3FGHIRWY/LB1 |
Departure
| Time | N/A |
|---|---|
| Airport | Taiwan Taoyuan International Airport (RCTP) |
Arrival
| Time | 2026-04-16 09:46 |
|---|---|
| Airport | Macau International Airport (VMMC) |
| Time | Latitude | Longitude | Altitude | Speed | Heading |
|---|---|---|---|---|---|
| 2026-04-16 08:36 | 23.90945 | 119.87808 | 32611 ft | 437 kts | 219° |
| 2026-04-16 08:37 | 23.88455 | 119.85897 | 32911 ft | 436 kts | 219° |
| 2026-04-16 08:37 | 23.85974 | 119.83996 | 33201 ft | 435 kts | 219° |
| 2026-04-16 08:37 | 23.83498 | 119.82100 | 33522 ft | 434 kts | 219° |
| 2026-04-16 08:37 | 23.81033 | 119.80210 | 33846 ft | 432 kts | 219° |
| 2026-04-16 08:38 | 23.78580 | 119.78324 | 34129 ft | 431 kts | 219° |
| 2026-04-16 08:38 | 23.76136 | 119.76445 | 34375 ft | 430 kts | 219° |
| 2026-04-16 08:38 | 23.73689 | 119.74563 | 34586 ft | 429 kts | 219° |
| 2026-04-16 08:38 | 23.71246 | 119.72686 | 34769 ft | 430 kts | 219° |
| 2026-04-16 08:39 | 23.68796 | 119.70810 | 34975 ft | 430 kts | 219° |
| 2026-04-16 08:39 | 23.66347 | 119.68937 | 35190 ft | 429 kts | 219° |
| 2026-04-16 08:39 | 23.63903 | 119.67071 | 35414 ft | 429 kts | 219° |
| 2026-04-16 08:39 | 23.61507 | 119.65149 | 35628 ft | 426 kts | 224° |
| 2026-04-16 08:40 | 23.59392 | 119.62910 | 35836 ft | 422 kts | 232° |
| 2026-04-16 08:40 | 23.57614 | 119.60383 | 35924 ft | 419 kts | 239° |
| 2026-04-16 08:40 | 23.54524 | 119.55019 | 35939 ft | 416 kts | 239° |
| 2026-04-16 08:41 | 23.51425 | 119.49704 | 35921 ft | 415 kts | 239° |
| 2026-04-16 08:41 | 23.48325 | 119.44374 | 35934 ft | 417 kts | 239° |
| 2026-04-16 08:42 | 23.45227 | 119.39041 | 35934 ft | 417 kts | 239° |
| 2026-04-16 08:42 | 23.42126 | 119.33704 | 35934 ft | 417 kts | 239° |
| 2026-04-16 08:43 | 23.39048 | 119.28406 | 35932 ft | 417 kts | 239° |
| 2026-04-16 08:43 | 23.35937 | 119.23075 | 35934 ft | 417 kts | 239° |
| 2026-04-16 08:44 | 23.32929 | 119.17923 | 35936 ft | 417 kts | 239° |
| 2026-04-16 08:44 | 23.29823 | 119.12599 | 35921 ft | 417 kts | 239° |
| 2026-04-16 08:45 | 23.27237 | 119.08171 | 35920 ft | 417 kts | 239° |
| 2026-04-16 08:45 | 23.24117 | 119.02839 | 35924 ft | 418 kts | 239° |
| 2026-04-16 08:46 | 23.20993 | 118.97507 | 35928 ft | 418 kts | 239° |
| 2026-04-16 08:46 | 23.17867 | 118.92173 | 35925 ft | 418 kts | 239° |
| 2026-04-16 08:47 | 23.14734 | 118.86840 | 35936 ft | 418 kts | 239° |
| 2026-04-16 08:47 | 23.11611 | 118.81510 | 35934 ft | 418 kts | 239° |
| 2026-04-16 08:48 | 23.08486 | 118.76184 | 35924 ft | 418 kts | 239° |
| 2026-04-16 08:48 | 23.05348 | 118.70858 | 35918 ft | 419 kts | 239° |
| 2026-04-16 08:49 | 23.02200 | 118.65522 | 35928 ft | 420 kts | 239° |
| 2026-04-16 08:49 | 22.99061 | 118.60202 | 35932 ft | 420 kts | 239° |
| 2026-04-16 08:50 | 22.95909 | 118.54866 | 35936 ft | 419 kts | 239° |
| 2026-04-16 08:50 | 22.92752 | 118.49540 | 35936 ft | 419 kts | 239° |
| 2026-04-16 08:51 | 22.89588 | 118.44220 | 35933 ft | 420 kts | 239° |
| 2026-04-16 08:51 | 22.86418 | 118.38905 | 35924 ft | 420 kts | 239° |
| 2026-04-16 08:52 | 22.83242 | 118.33583 | 35920 ft | 421 kts | 239° |
| 2026-04-16 08:52 | 22.80067 | 118.28253 | 35926 ft | 421 kts | 239° |
| 2026-04-16 08:53 | 22.76889 | 118.22928 | 35932 ft | 421 kts | 239° |
| 2026-04-16 08:53 | 22.73701 | 118.17605 | 35936 ft | 421 kts | 239° |
| 2026-04-16 08:54 | 22.70522 | 118.12290 | 35927 ft | 421 kts | 239° |
| 2026-04-16 08:54 | 22.67340 | 118.06977 | 35939 ft | 421 kts | 239° |
| 2026-04-16 08:55 | 22.64151 | 118.01664 | 35938 ft | 420 kts | 239° |
| 2026-04-16 08:55 | 22.60967 | 117.96360 | 35937 ft | 420 kts | 239° |
| 2026-04-16 08:56 | 22.57817 | 117.91095 | 35933 ft | 419 kts | 239° |
| 2026-04-16 08:56 | 22.54668 | 117.85784 | 35927 ft | 419 kts | 239° |
| 2026-04-16 08:57 | 22.51521 | 117.80472 | 35927 ft | 419 kts | 239° |
| 2026-04-16 08:57 | 22.48368 | 117.75169 | 35929 ft | 419 kts | 239° |
| 2026-04-16 08:58 | 22.45236 | 117.69930 | 35921 ft | 419 kts | 239° |
| 2026-04-16 08:58 | 22.42046 | 117.64597 | 35906 ft | 420 kts | 239° |
| 2026-04-16 08:59 | 22.38899 | 117.59321 | 35901 ft | 421 kts | 239° |
| 2026-04-16 08:59 | 22.35800 | 117.53913 | 35905 ft | 419 kts | 246° |
| 2026-04-16 09:00 | 22.34805 | 117.50963 | 35908 ft | 418 kts | 257° |
| 2026-04-16 09:00 | 22.34375 | 117.47866 | 35902 ft | 418 kts | 267° |
| 2026-04-16 09:00 | 22.35115 | 117.41645 | 35915 ft | 420 kts | 281° |
| 2026-04-16 09:01 | 22.37078 | 117.32408 | 35914 ft | 421 kts | 281° |
| 2026-04-16 09:02 | 22.38375 | 117.26274 | 35911 ft | 421 kts | 281° |
| 2026-04-16 09:02 | 22.39684 | 117.20098 | 35920 ft | 422 kts | 281° |
| 2026-04-16 09:03 | 22.40982 | 117.13920 | 35934 ft | 421 kts | 281° |
| 2026-04-16 09:03 | 22.42273 | 117.07745 | 35941 ft | 421 kts | 281° |
| 2026-04-16 09:04 | 22.43565 | 117.01577 | 35929 ft | 420 kts | 281° |
| 2026-04-16 09:04 | 22.44857 | 116.95413 | 35930 ft | 420 kts | 281° |
| 2026-04-16 09:05 | 22.46149 | 116.89254 | 35928 ft | 420 kts | 281° |
| 2026-04-16 09:05 | 22.47434 | 116.83093 | 35932 ft | 420 kts | 280° |
| 2026-04-16 09:06 | 22.48712 | 116.76940 | 35931 ft | 419 kts | 280° |
| 2026-04-16 09:06 | 22.49987 | 116.70792 | 35929 ft | 419 kts | 280° |
| 2026-04-16 09:07 | 22.50565 | 116.64579 | 35937 ft | 415 kts | 265° |
| 2026-04-16 09:07 | 22.50216 | 116.58346 | 35929 ft | 415 kts | 266° |
| 2026-04-16 09:08 | 22.49871 | 116.52116 | 35946 ft | 415 kts | 266° |
| 2026-04-16 09:08 | 22.49532 | 116.45895 | 35933 ft | 414 kts | 266° |
| 2026-04-16 09:09 | 22.49186 | 116.39678 | 35931 ft | 414 kts | 266° |
| 2026-04-16 09:09 | 22.48824 | 116.33473 | 35925 ft | 413 kts | 265° |
| 2026-04-16 09:10 | 22.48466 | 116.27262 | 35926 ft | 413 kts | 266° |
| 2026-04-16 09:10 | 22.48119 | 116.21069 | 35930 ft | 413 kts | 266° |
| 2026-04-16 09:11 | 22.47766 | 116.14877 | 35938 ft | 412 kts | 266° |
| 2026-04-16 09:11 | 22.47399 | 116.08699 | 35929 ft | 412 kts | 265° |
| 2026-04-16 09:12 | 22.47039 | 116.02526 | 35926 ft | 411 kts | 266° |
| 2026-04-16 09:12 | 22.46679 | 115.96352 | 35904 ft | 411 kts | 265° |
| 2026-04-16 09:13 | 22.46311 | 115.90176 | 35908 ft | 412 kts | 266° |
| 2026-04-16 09:13 | 22.45948 | 115.83996 | 35908 ft | 412 kts | 266° |
| 2026-04-16 09:14 | 22.45580 | 115.77817 | 35907 ft | 412 kts | 265° |
| 2026-04-16 09:14 | 22.45204 | 115.71636 | 35908 ft | 412 kts | 265° |
| 2026-04-16 09:15 | 22.44824 | 115.65454 | 35910 ft | 412 kts | 265° |
| 2026-04-16 09:15 | 22.44447 | 115.59279 | 35924 ft | 412 kts | 266° |
| 2026-04-16 09:16 | 22.44075 | 115.53105 | 35917 ft | 412 kts | 266° |
| 2026-04-16 09:16 | 22.43886 | 115.50014 | 35579 ft | 412 kts | 266° |
| 2026-04-16 09:16 | 22.43696 | 115.46924 | 35210 ft | 412 kts | 266° |
| 2026-04-16 09:16 | 22.43502 | 115.43836 | 34789 ft | 412 kts | 265° |
| 2026-04-16 09:17 | 22.43304 | 115.40745 | 34384 ft | 412 kts | 266° |
| 2026-04-16 09:17 | 22.43107 | 115.37651 | 33985 ft | 413 kts | 266° |
| 2026-04-16 09:17 | 22.42909 | 115.34552 | 33501 ft | 414 kts | 266° |
| 2026-04-16 09:17 | 22.42713 | 115.31444 | 33000 ft | 415 kts | 266° |
| 2026-04-16 09:18 | 22.42521 | 115.28325 | 32500 ft | 416 kts | 266° |
| 2026-04-16 09:18 | 22.42328 | 115.25202 | 32015 ft | 418 kts | 265° |
| 2026-04-16 09:18 | 22.42129 | 115.22073 | 31530 ft | 416 kts | 265° |
| 2026-04-16 09:18 | 22.41931 | 115.18959 | 31056 ft | 414 kts | 265° |
| 2026-04-16 09:19 | 22.41730 | 115.15869 | 30589 ft | 411 kts | 265° |
| 2026-04-16 09:19 | 22.41531 | 115.12797 | 30037 ft | 410 kts | 265° |
| 2026-04-16 09:19 | 22.41332 | 115.09734 | 29455 ft | 406 kts | 265° |
| 2026-04-16 09:19 | 22.41136 | 115.06710 | 28951 ft | 401 kts | 265° |
| 2026-04-16 09:20 | 22.40942 | 115.03717 | 28441 ft | 397 kts | 265° |
| 2026-04-16 09:20 | 22.40755 | 115.00792 | 27955 ft | 392 kts | 265° |
| 2026-04-16 09:20 | 22.40569 | 114.97864 | 27452 ft | 389 kts | 265° |
| 2026-04-16 09:20 | 22.40384 | 114.94968 | 26959 ft | 385 kts | 265° |
| 2026-04-16 09:21 | 22.40199 | 114.92099 | 26479 ft | 381 kts | 265° |
| 2026-04-16 09:21 | 22.40014 | 114.89258 | 26006 ft | 377 kts | 265° |
| 2026-04-16 09:21 | 22.39829 | 114.86445 | 25544 ft | 373 kts | 265° |
| 2026-04-16 09:21 | 22.39645 | 114.83662 | 25087 ft | 370 kts | 265° |
| 2026-04-16 09:22 | 22.39459 | 114.80898 | 24642 ft | 367 kts | 264° |
| 2026-04-16 09:22 | 22.39274 | 114.78161 | 24209 ft | 363 kts | 264° |
| 2026-04-16 09:22 | 22.39087 | 114.75450 | 23778 ft | 360 kts | 264° |
| 2026-04-16 09:22 | 22.38903 | 114.72768 | 23353 ft | 357 kts | 264° |
| 2026-04-16 09:23 | 22.38725 | 114.70109 | 22974 ft | 353 kts | 265° |
| 2026-04-16 09:23 | 22.38547 | 114.67413 | 22893 ft | 366 kts | 265° |
| 2026-04-16 09:23 | 22.38365 | 114.64649 | 22911 ft | 372 kts | 265° |
| 2026-04-16 09:23 | 22.38175 | 114.61853 | 22914 ft | 373 kts | 263° |
| 2026-04-16 09:24 | 22.37593 | 114.59137 | 22912 ft | 372 kts | 249° |
| 2026-04-16 09:24 | 22.36624 | 114.56540 | 22912 ft | 373 kts | 248° |
| 2026-04-16 09:24 | 22.35633 | 114.53951 | 22915 ft | 373 kts | 248° |
| 2026-04-16 09:24 | 22.34634 | 114.51366 | 22916 ft | 373 kts | 248° |
| 2026-04-16 09:25 | 22.33630 | 114.48779 | 22913 ft | 373 kts | 248° |
| 2026-04-16 09:25 | 22.32627 | 114.46195 | 22910 ft | 373 kts | 248° |
| 2026-04-16 09:25 | 22.31628 | 114.43611 | 22912 ft | 373 kts | 248° |
| 2026-04-16 09:25 | 22.30632 | 114.41026 | 22858 ft | 374 kts | 248° |
| 2026-04-16 09:26 | 22.29634 | 114.38434 | 22483 ft | 372 kts | 248° |
| 2026-04-16 09:26 | 22.28648 | 114.35869 | 22105 ft | 370 kts | 248° |
| 2026-04-16 09:26 | 22.27995 | 114.34173 | 21853 ft | 368 kts | 248° |
| 2026-04-16 09:26 | 22.27011 | 114.31623 | 21485 ft | 367 kts | 248° |
| 2026-04-16 09:27 | 22.26033 | 114.29087 | 21120 ft | 365 kts | 248° |
| 2026-04-16 09:27 | 22.25060 | 114.26564 | 20760 ft | 364 kts | 248° |
| 2026-04-16 09:27 | 22.24093 | 114.24048 | 20400 ft | 363 kts | 248° |
| 2026-04-16 09:27 | 22.23126 | 114.21535 | 20046 ft | 361 kts | 248° |
| 2026-04-16 09:28 | 22.22150 | 114.19003 | 19695 ft | 359 kts | 248° |
| 2026-04-16 09:28 | 22.21200 | 114.16553 | 19347 ft | 358 kts | 247° |
| 2026-04-16 09:28 | 22.20238 | 114.14079 | 18954 ft | 356 kts | 247° |
| 2026-04-16 09:28 | 22.19269 | 114.11584 | 18543 ft | 355 kts | 247° |
| 2026-04-16 09:29 | 22.18332 | 114.09168 | 18136 ft | 353 kts | 247° |
| 2026-04-16 09:29 | 22.17384 | 114.06729 | 17672 ft | 352 kts | 247° |
| 2026-04-16 09:29 | 22.16440 | 114.04297 | 17202 ft | 350 kts | 247° |
| 2026-04-16 09:29 | 22.15501 | 114.01883 | 16708 ft | 348 kts | 247° |
| 2026-04-16 09:30 | 22.14567 | 113.99477 | 16215 ft | 347 kts | 247° |
| 2026-04-16 09:30 | 22.13641 | 113.97084 | 15729 ft | 345 kts | 247° |
| 2026-04-16 09:30 | 22.12717 | 113.94703 | 15256 ft | 343 kts | 247° |
| 2026-04-16 09:30 | 22.11796 | 113.92332 | 14794 ft | 342 kts | 247° |
| 2026-04-16 09:31 | 22.10878 | 113.89973 | 14324 ft | 340 kts | 247° |
| 2026-04-16 09:31 | 22.09964 | 113.87627 | 13872 ft | 338 kts | 247° |
| 2026-04-16 09:31 | 22.09055 | 113.85294 | 13385 ft | 337 kts | 247° |
| 2026-04-16 09:31 | 22.08150 | 113.82971 | 12877 ft | 335 kts | 247° |
| 2026-04-16 09:32 | 22.07248 | 113.80655 | 12377 ft | 334 kts | 247° |
| 2026-04-16 09:32 | 22.06350 | 113.78354 | 11882 ft | 333 kts | 247° |
| 2026-04-16 09:32 | 22.05451 | 113.76057 | 11397 ft | 332 kts | 247° |
| 2026-04-16 09:32 | 22.04560 | 113.73776 | 10986 ft | 329 kts | 247° |
| 2026-04-16 09:33 | 22.03680 | 113.71521 | 10658 ft | 323 kts | 247° |
| 2026-04-16 09:33 | 22.02822 | 113.69308 | 10325 ft | 318 kts | 249° |
| 2026-04-16 09:33 | 22.02306 | 113.67021 | 9996 ft | 310 kts | 264° |
| 2026-04-16 09:33 | 22.02246 | 113.64751 | 9663 ft | 298 kts | 275° |
| 2026-04-16 09:34 | 22.02746 | 113.62631 | 9312 ft | 290 kts | 292° |
| 2026-04-16 09:34 | 22.03817 | 113.60802 | 8971 ft | 289 kts | 310° |
| 2026-04-16 09:34 | 22.05340 | 113.59400 | 8884 ft | 289 kts | 324° |
| 2026-04-16 09:34 | 22.07017 | 113.58184 | 8891 ft | 291 kts | 323° |
| 2026-04-16 09:35 | 22.08694 | 113.56957 | 8889 ft | 292 kts | 323° |
| 2026-04-16 09:35 | 22.10370 | 113.55726 | 8842 ft | 290 kts | 323° |
| 2026-04-16 09:35 | 22.12000 | 113.54524 | 8479 ft | 288 kts | 323° |
| 2026-04-16 09:35 | 22.13645 | 113.53275 | 8087 ft | 287 kts | 322° |
| 2026-04-16 09:36 | 22.15267 | 113.52019 | 7709 ft | 286 kts | 321° |
| 2026-04-16 09:36 | 22.16878 | 113.50763 | 7350 ft | 285 kts | 322° |
| 2026-04-16 09:36 | 22.18487 | 113.49511 | 6988 ft | 285 kts | 322° |
| 2026-04-16 09:36 | 22.20152 | 113.48359 | 6617 ft | 285 kts | 334° |
| 2026-04-16 09:37 | 22.22068 | 113.47838 | 6235 ft | 287 kts | 356° |
| 2026-04-16 09:37 | 22.24043 | 113.48114 | 5842 ft | 288 kts | 18° |
| 2026-04-16 09:37 | 22.25812 | 113.49105 | 5469 ft | 287 kts | 32° |
| 2026-04-16 09:37 | 22.27492 | 113.50249 | 5149 ft | 282 kts | 31° |
| 2026-04-16 09:38 | 22.29115 | 113.51353 | 4905 ft | 268 kts | 30° |
| 2026-04-16 09:38 | 22.30659 | 113.52403 | 4673 ft | 257 kts | 30° |
| 2026-04-16 09:38 | 22.32127 | 113.53397 | 4445 ft | 242 kts | 29° |
| 2026-04-16 09:38 | 22.33515 | 113.54333 | 4192 ft | 229 kts | 31° |
| 2026-04-16 09:39 | 22.34814 | 113.55220 | 4067 ft | 216 kts | 32° |
| 2026-04-16 09:39 | 22.35850 | 113.56387 | 3965 ft | 217 kts | 59° |
| 2026-04-16 09:39 | 22.36357 | 113.57922 | 3799 ft | 217 kts | 83° |
| 2026-04-16 09:39 | 22.36361 | 113.59537 | 3586 ft | 214 kts | 98° |
| 2026-04-16 09:40 | 22.35885 | 113.61008 | 3373 ft | 205 kts | 127° |
| 2026-04-16 09:40 | 22.34860 | 113.62023 | 3187 ft | 199 kts | 155° |
| 2026-04-16 09:40 | 22.33573 | 113.62502 | 3014 ft | 196 kts | 167° |
| 2026-04-16 09:40 | 22.32264 | 113.62907 | 2820 ft | 194 kts | 167° |
| 2026-04-16 09:41 | 22.30988 | 113.63307 | 2654 ft | 185 kts | 166° |
| 2026-04-16 09:41 | 22.29789 | 113.63685 | 2480 ft | 174 kts | 166° |
| 2026-04-16 09:41 | 22.28649 | 113.64007 | 2338 ft | 166 kts | 173° |
| 2026-04-16 09:41 | 22.27518 | 113.64016 | 2221 ft | 161 kts | 188° |
| 2026-04-16 09:42 | 22.26453 | 113.63684 | 2072 ft | 159 kts | 202° |
| 2026-04-16 09:42 | 22.25518 | 113.63041 | 1962 ft | 160 kts | 217° |
| 2026-04-16 09:42 | 22.24772 | 113.62136 | 1893 ft | 163 kts | 229° |
| 2026-04-16 09:42 | 22.24082 | 113.61152 | 1826 ft | 162 kts | 230° |
| 2026-04-16 09:43 | 22.23432 | 113.60234 | 1738 ft | 150 kts | 229° |
| 2026-04-16 09:43 | 22.22813 | 113.59362 | 1519 ft | 144 kts | 227° |
| 2026-04-16 09:43 | 22.22210 | 113.58515 | 1328 ft | 140 kts | 228° |
| 2026-04-16 09:43 | 22.21505 | 113.57833 | 1136 ft | 135 kts | 208° |
| 2026-04-16 09:44 | 22.20637 | 113.57464 | 965 ft | 135 kts | 189° |
| 2026-04-16 09:44 | 22.19708 | 113.57440 | 791 ft | 134 kts | 170° |
| 2026-04-16 09:44 | 22.18816 | 113.57730 | 623 ft | 135 kts | 161° |
| 2026-04-16 09:44 | 22.17930 | 113.58062 | 419 ft | 135 kts | 161° |
| 2026-04-16 09:45 | 22.17043 | 113.58378 | 265 ft | 134 kts | 162° |
| 2026-04-16 09:45 | 22.16153 | 113.58700 | 97 ft | 135 kts | 164° |
| 2026-04-16 09:45 | 22.15286 | 113.59016 | 29 ft | 116 kts | 161° |
| 2026-04-16 09:45 | 22.14724 | 113.59223 | 27 ft | 59 kts | 161° |
| 2026-04-16 09:46 | 22.14430 | 113.59327 | 27 ft | 41 kts | 162° |
| 2026-04-16 09:46 | 22.14223 | 113.59406 | 29 ft | 19 kts | 164° |
| 2026-04-16 09:46 | 22.14152 | 113.59350 | 29 ft | 12 kts | 251° |
| 2026-04-16 09:46 | 22.14132 | 113.59282 | 29 ft | 8 kts | 266° |
| 2026-04-16 09:47 | 22.14160 | 113.59246 | 29 ft | 5 kts | 351° |
| 2026-04-16 09:47 | 22.14193 | 113.59233 | 28 ft | 5 kts | 340° |
| 2026-04-16 09:47 | 22.14249 | 113.59212 | 28 ft | 13 kts | 340° |
| 2026-04-16 09:47 | 22.14363 | 113.59170 | 28 ft | 19 kts | 341° |
| 2026-04-16 09:48 | 22.14484 | 113.59126 | 28 ft | 18 kts | 341° |
| 2026-04-16 09:48 | 22.14598 | 113.59084 | 28 ft | 17 kts | 341° |
| 2026-04-16 09:48 | 22.14698 | 113.59046 | 29 ft | 10 kts | 340° |
| 2026-04-16 09:48 | 22.14746 | 113.59006 | 29 ft | 9 kts | 302° |
| 2026-04-16 09:49 | 22.14796 | 113.58924 | 29 ft | 19 kts | 303° |
| 2026-04-16 09:49 | 22.14873 | 113.58798 | 29 ft | 20 kts | 304° |
| 2026-04-16 09:49 | 22.14948 | 113.58678 | 29 ft | 20 kts | 303° |
| 2026-04-16 09:49 | 22.15023 | 113.58556 | 29 ft | 19 kts | 303° |
| 2026-04-16 09:50 | 22.15094 | 113.58438 | 29 ft | 18 kts | 303° |
| 2026-04-16 09:50 | 22.15165 | 113.58325 | 29 ft | 18 kts | 304° |
| 2026-04-16 09:50 | 22.15234 | 113.58216 | 29 ft | 17 kts | 304° |
| 2026-04-16 09:50 | 22.15300 | 113.58110 | 29 ft | 17 kts | 304° |
| 2026-04-16 09:51 | 22.15363 | 113.58008 | 29 ft | 16 kts | 304° |
| 2026-04-16 09:51 | 22.15424 | 113.57910 | 29 ft | 15 kts | 303° |
| 2026-04-16 09:51 | 22.15482 | 113.57816 | 29 ft | 15 kts | 303° |
| 2026-04-16 09:51 | 22.15538 | 113.57726 | 29 ft | 14 kts | 303° |
| 2026-04-16 09:52 | 22.15591 | 113.57640 | 29 ft | 13 kts | 303° |
| 2026-04-16 09:52 | 22.15660 | 113.57607 | 29 ft | 11 kts | 24° |
| 2026-04-16 09:52 | 22.15722 | 113.57650 | 29 ft | 10 kts | 27° |
| 2026-04-16 09:52 | 22.15786 | 113.57678 | 29 ft | 9 kts | 17° |
| 2026-04-16 09:53 | 22.15836 | 113.57683 | 29 ft | 6 kts | 336° |
| 2026-04-16 09:53 | 22.15847 | 113.57670 | 29 ft | 3 kts | 304° |
| 2026-04-16 09:53 | 22.15855 | 113.57630 | 29 ft | 4 kts | 285° |
| 2026-04-16 09:53 | 22.15857 | 113.57623 | 29 ft | 0 kts | 285° |